• pl
  • eng

Awiacja
TAF FT 01:00 01.01.1970

TAF EPBY 182330Z 1900/1924 33010KT 9999 BKN010
TEMPO 1900/1909 BKN004 BKN007
PROB30 TEMPO 1900/1903 4000 SHRA BKN014CB
BECMG 1909/1911 SCT020
PROB40 TEMPO 1912/1918 SHRA BKN020CB=

TAF EPGD 182330Z 1900/1924 29008KT 9999 SCT025
PROB40 1900/1907 3000 BR BKN003
BECMG 1910/1912 01010KT
PROB40 TEMPO 1910/1916 SHRA BKN025CB
BECMG 1914/1917 29008KT=

TAF EPKK 182330Z 1900/1924 25008KT 7000 BKN016
TEMPO 1900/1906 2000 +SHRA BR BKN003 BKN015CB
PROB30 TEMPO 1900/1903 TSRA
TEMPO 1906/1911 4000 BR BKN006
TEMPO 1919/1924 3000 BR BKN008=

TAF EPKT 182330Z 1900/1924 32010KT 7000 BKN006
TEMPO 1900/1906 2000 +SHRA BR BKN002 BKN009CB
PROB30 TEMPO 1900/1903 TSRA
TEMPO 1906/1911 4000 BR BKN003
TEMPO 1918/1924 3000 BR BKN003=

TAF EPLL 182330Z 1900/1924 28006KT 9999 BKN004 BKN010
TEMPO 1900/1906 3000 SHRA BKN002 BKN010CB
BECMG 1908/1910 BKN016
TEMPO 1917/1924 4000 SHRA BKN006 BKN015CB
PROB40 TEMPO 1917/1921 TSRA
BECMG 1919/1922 BKN003=

TAF EPMO 182330Z 1900/1924 30008KT 9999 SCT020 BKN040
PROB30 1900/1908 3000 BR BKN005
PROB40 TEMPO 1912/1921 VRB15G28KT 3000 TSRA BKN030CB
PROB40 1921/1924 BKN004=

TAF EPPO 182330Z 1900/1924 32010KT 9999 BKN025
TEMPO 1900/1920 2500 SHRA BKN004 BKN013CB=

TAF EPRZ 182330Z 1900/1924 30010KT 7000 BKN018
TEMPO 1900/1911 2000 BR BKN003 BKN009
PROB40 TEMPO 1900/1904 TSRA BKN015CB
TEMPO 1911/1920 29017G28KT 3000 TSRA BKN009 BKN016CB=

TAF EPSC 182330Z 1900/1924 30005KT 9999 SCT012 BKN020
BECMG 1902/1905 3000 -RA BR BKN006
TEMPO 1904/1909 BKN002
BECMG 1908/1911 31015KT 9999 BKN011
BECMG 1912/1915 BKN020
BECMG 1918/1920 30005KT=

TAF EPWA 182330Z 1900/1924 29008KT 9999 BKN005
PROB40 TEMPO 1900/1906 3000 BR BKN003
BECMG 1906/1909 SCT030
TEMPO 1912/1921 VRB15G28KT 3000 TSRA BKN009 BKN020CB
PROB40 1921/1924 BKN004=

TAF EPWR 182330Z 1900/1924 32008KT 9999 BKN026
TEMPO 1900/1922 3500 SHRA BKN004 BKN013CB=
Awiacja.imgw.pl jest pogodowym serwisem informacyjnym
Instytutu Meteorologii i Gospodarki Wodnej Państwowego Instytutu Badawczego.
Copyright IMGW PIB 2009-2011© Wszelkie prawa zastrzeżone.